sensor_id;sensor_type;location;lat;lon;timestamp;P1;durP1;ratioP1;P2;durP2;ratioP2
27822;SDS011;29019;47.630;8.262;2024-03-02T00:03:10;11.50;;;1.75;;
27822;SDS011;29019;47.630;8.262;2024-03-02T00:07:14;12.73;;;1.20;;
27822;SDS011;29019;47.630;8.262;2024-03-02T00:11:15;12.95;;;1.30;;
27822;SDS011;29019;47.630;8.262;2024-03-02T00:19:44;6.20;;;1.42;;
27822;SDS011;29019;47.630;8.262;2024-03-02T00:23:45;5.20;;;0.70;;
27822;SDS011;29019;47.630;8.262;2024-03-02T00:27:47;9.82;;;1.50;;
27822;SDS011;29019;47.630;8.262;2024-03-02T00:31:49;8.57;;;1.65;;
27822;SDS011;29019;47.630;8.262;2024-03-02T00:35:49;16.92;;;2.05;;
27822;SDS011;29019;47.630;8.262;2024-03-02T00:39:50;13.18;;;2.05;;
27822;SDS011;29019;47.630;8.262;2024-03-02T00:43:54;14.63;;;1.67;;
27822;SDS011;29019;47.630;8.262;2024-03-02T00:47:58;12.30;;;1.50;;
27822;SDS011;29019;47.630;8.262;2024-03-02T00:51:59;13.63;;;2.13;;
27822;SDS011;29019;47.630;8.262;2024-03-02T00:56:00;4.85;;;1.52;;
27822;SDS011;29019;47.630;8.262;2024-03-02T01:00:01;3.15;;;1.17;;
27822;SDS011;29019;47.630;8.262;2024-03-02T01:04:03;5.65;;;2.17;;
27822;SDS011;29019;47.630;8.262;2024-03-02T01:12:06;5.63;;;1.50;;
27822;SDS011;29019;47.630;8.262;2024-03-02T01:16:07;9.63;;;1.58;;
27822;SDS011;29019;47.630;8.262;2024-03-02T01:20:08;7.15;;;1.25;;
27822;SDS011;29019;47.630;8.262;2024-03-02T01:24:09;4.10;;;1.40;;
27822;SDS011;29019;47.630;8.262;2024-03-02T01:28:10;11.23;;;2.05;;
27822;SDS011;29019;47.630;8.262;2024-03-02T01:32:10;6.00;;;1.70;;
27822;SDS011;29019;47.630;8.262;2024-03-02T01:36:11;10.48;;;1.60;;
27822;SDS011;29019;47.630;8.262;2024-03-02T01:40:12;8.18;;;1.02;;
27822;SDS011;29019;47.630;8.262;2024-03-02T01:44:13;2.33;;;1.42;;
27822;SDS011;29019;47.630;8.262;2024-03-02T01:48:13;7.30;;;1.48;;
27822;SDS011;29019;47.630;8.262;2024-03-02T01:52:14;4.43;;;1.20;;
27822;SDS011;29019;47.630;8.262;2024-03-02T01:56:15;5.80;;;1.30;;
27822;SDS011;29019;47.630;8.262;2024-03-02T02:00:15;8.50;;;1.20;;
27822;SDS011;29019;47.630;8.262;2024-03-02T02:04:16;2.30;;;1.17;;
27822;SDS011;29019;47.630;8.262;2024-03-02T02:08:17;3.47;;;1.15;;
27822;SDS011;29019;47.630;8.262;2024-03-02T02:12:18;4.05;;;1.17;;
27822;SDS011;29019;47.630;8.262;2024-03-02T02:16:19;7.50;;;1.23;;
27822;SDS011;29019;47.630;8.262;2024-03-02T02:20:19;2.38;;;1.20;;
27822;SDS011;29019;47.630;8.262;2024-03-02T02:24:20;2.17;;;1.17;;
27822;SDS011;29019;47.630;8.262;2024-03-02T02:28:21;7.65;;;1.40;;
27822;SDS011;29019;47.630;8.262;2024-03-02T02:32:22;5.32;;;1.00;;
27822;SDS011;29019;47.630;8.262;2024-03-02T02:36:22;4.22;;;1.20;;
27822;SDS011;29019;47.630;8.262;2024-03-02T02:40:23;5.93;;;1.43;;
27822;SDS011;29019;47.630;8.262;2024-03-02T02:44:24;4.55;;;0.95;;
27822;SDS011;29019;47.630;8.262;2024-03-02T02:48:25;1.65;;;0.80;;
27822;SDS011;29019;47.630;8.262;2024-03-02T02:52:25;2.90;;;1.00;;
27822;SDS011;29019;47.630;8.262;2024-03-02T02:56:33;2.25;;;0.98;;
27822;SDS011;29019;47.630;8.262;2024-03-02T03:00:33;2.43;;;1.03;;
27822;SDS011;29019;47.630;8.262;2024-03-02T03:04:34;2.53;;;1.30;;
27822;SDS011;29019;47.630;8.262;2024-03-02T03:08:35;2.47;;;0.77;;
27822;SDS011;29019;47.630;8.262;2024-03-02T03:12:35;2.00;;;1.40;;
27822;SDS011;29019;47.630;8.262;2024-03-02T03:16:36;0.80;;;0.80;;
27822;SDS011;29019;47.630;8.262;2024-03-02T03:20:37;4.67;;;1.47;;
27822;SDS011;29019;47.630;8.262;2024-03-02T03:24:38;1.50;;;0.77;;
27822;SDS011;29019;47.630;8.262;2024-03-02T03:28:38;1.10;;;0.90;;
27822;SDS011;29019;47.630;8.262;2024-03-02T03:32:39;4.70;;;1.33;;
27822;SDS011;29019;47.630;8.262;2024-03-02T03:36:40;3.28;;;1.02;;
27822;SDS011;29019;47.630;8.262;2024-03-02T03:40:41;1.67;;;0.80;;
27822;SDS011;29019;47.630;8.262;2024-03-02T03:44:42;1.67;;;0.75;;
27822;SDS011;29019;47.630;8.262;2024-03-02T03:48:42;1.48;;;0.70;;
27822;SDS011;29019;47.630;8.262;2024-03-02T03:52:43;1.70;;;0.88;;
27822;SDS011;29019;47.630;8.262;2024-03-02T03:56:44;2.80;;;0.98;;
27822;SDS011;29019;47.630;8.262;2024-03-02T04:00:44;2.38;;;0.77;;
27822;SDS011;29019;47.630;8.262;2024-03-02T04:04:45;0.95;;;0.70;;
27822;SDS011;29019;47.630;8.262;2024-03-02T04:08:46;1.70;;;0.82;;
27822;SDS011;29019;47.630;8.262;2024-03-02T04:12:46;3.33;;;1.00;;
27822;SDS011;29019;47.630;8.262;2024-03-02T04:16:49;0.93;;;0.73;;
27822;SDS011;29019;47.630;8.262;2024-03-02T04:20:49;1.30;;;0.77;;
27822;SDS011;29019;47.630;8.262;2024-03-02T04:24:50;1.75;;;1.00;;
27822;SDS011;29019;47.630;8.262;2024-03-02T04:28:51;0.80;;;0.70;;
27822;SDS011;29019;47.630;8.262;2024-03-02T04:32:52;3.05;;;1.08;;
27822;SDS011;29019;47.630;8.262;2024-03-02T04:36:53;3.10;;;1.33;;
27822;SDS011;29019;47.630;8.262;2024-03-02T04:40:53;3.75;;;1.05;;
27822;SDS011;29019;47.630;8.262;2024-03-02T04:44:54;1.02;;;0.70;;
27822;SDS011;29019;47.630;8.262;2024-03-02T04:48:55;0.85;;;0.60;;
27822;SDS011;29019;47.630;8.262;2024-03-02T04:52:57;1.23;;;0.77;;
27822;SDS011;29019;47.630;8.262;2024-03-02T04:56:57;1.48;;;0.55;;
27822;SDS011;29019;47.630;8.262;2024-03-02T05:00:58;2.97;;;0.85;;
27822;SDS011;29019;47.630;8.262;2024-03-02T05:04:59;0.95;;;0.70;;
27822;SDS011;29019;47.630;8.262;2024-03-02T05:09:00;2.50;;;0.90;;
27822;SDS011;29019;47.630;8.262;2024-03-02T05:13:00;1.92;;;0.98;;
27822;SDS011;29019;47.630;8.262;2024-03-02T05:17:01;2.50;;;0.87;;
27822;SDS011;29019;47.630;8.262;2024-03-02T05:21:01;3.27;;;1.03;;
27822;SDS011;29019;47.630;8.262;2024-03-02T05:25:04;1.25;;;0.77;;
27822;SDS011;29019;47.630;8.262;2024-03-02T05:29:05;2.20;;;0.77;;
27822;SDS011;29019;47.630;8.262;2024-03-02T05:33:06;1.05;;;0.90;;
27822;SDS011;29019;47.630;8.262;2024-03-02T05:37:07;1.05;;;0.90;;
27822;SDS011;29019;47.630;8.262;2024-03-02T05:41:07;1.52;;;0.70;;
27822;SDS011;29019;47.630;8.262;2024-03-02T05:45:08;1.17;;;0.70;;
27822;SDS011;29019;47.630;8.262;2024-03-02T05:49:09;1.48;;;0.82;;
27822;SDS011;29019;47.630;8.262;2024-03-02T05:53:10;2.30;;;0.90;;
27822;SDS011;29019;47.630;8.262;2024-03-02T05:57:11;1.13;;;0.85;;
27822;SDS011;29019;47.630;8.262;2024-03-02T06:01:36;1.38;;;0.80;;
27822;SDS011;29019;47.630;8.262;2024-03-02T06:05:37;1.55;;;0.80;;
27822;SDS011;29019;47.630;8.262;2024-03-02T06:09:38;0.90;;;0.50;;
27822;SDS011;29019;47.630;8.262;2024-03-02T06:13:38;0.95;;;0.65;;
27822;SDS011;29019;47.630;8.262;2024-03-02T06:17:39;1.20;;;0.70;;
27822;SDS011;29019;47.630;8.262;2024-03-02T06:21:40;0.80;;;0.65;;
27822;SDS011;29019;47.630;8.262;2024-03-02T06:25:40;1.23;;;1.00;;
27822;SDS011;29019;47.630;8.262;2024-03-02T06:29:41;0.93;;;0.70;;
27822;SDS011;29019;47.630;8.262;2024-03-02T06:33:42;1.15;;;0.68;;
27822;SDS011;29019;47.630;8.262;2024-03-02T06:37:42;1.07;;;0.80;;
27822;SDS011;29019;47.630;8.262;2024-03-02T06:41:43;1.65;;;0.50;;
27822;SDS011;29019;47.630;8.262;2024-03-02T06:45:44;1.05;;;0.75;;
27822;SDS011;29019;47.630;8.262;2024-03-02T06:49:44;0.60;;;0.60;;
27822;SDS011;29019;47.630;8.262;2024-03-02T06:53:45;0.77;;;0.63;;
27822;SDS011;29019;47.630;8.262;2024-03-02T07:01:47;0.93;;;0.60;;
27822;SDS011;29019;47.630;8.262;2024-03-02T07:05:48;1.23;;;0.90;;
27822;SDS011;29019;47.630;8.262;2024-03-02T07:09:48;1.25;;;0.73;;
27822;SDS011;29019;47.630;8.262;2024-03-02T07:13:49;2.53;;;1.00;;
27822;SDS011;29019;47.630;8.262;2024-03-02T07:17:50;0.68;;;0.68;;
27822;SDS011;29019;47.630;8.262;2024-03-02T07:21:51;1.48;;;1.38;;
27822;SDS011;29019;47.630;8.262;2024-03-02T07:25:52;0.75;;;0.75;;
27822;SDS011;29019;47.630;8.262;2024-03-02T07:29:56;2.40;;;0.70;;
27822;SDS011;29019;47.630;8.262;2024-03-02T07:33:57;2.20;;;1.10;;
27822;SDS011;29019;47.630;8.262;2024-03-02T07:37:57;1.10;;;0.60;;
27822;SDS011;29019;47.630;8.262;2024-03-02T07:41:59;1.42;;;1.33;;
27822;SDS011;29019;47.630;8.262;2024-03-02T07:46:00;0.70;;;0.50;;
27822;SDS011;29019;47.630;8.262;2024-03-02T07:50:01;1.75;;;0.70;;
27822;SDS011;29019;47.630;8.262;2024-03-02T07:54:02;0.65;;;0.50;;
27822;SDS011;29019;47.630;8.262;2024-03-02T07:58:04;1.33;;;0.70;;
27822;SDS011;29019;47.630;8.262;2024-03-02T08:06:05;0.73;;;0.50;;
27822;SDS011;29019;47.630;8.262;2024-03-02T08:10:06;0.90;;;0.70;;
27822;SDS011;29019;47.630;8.262;2024-03-02T08:14:07;0.60;;;0.60;;
27822;SDS011;29019;47.630;8.262;2024-03-02T08:18:08;0.90;;;0.60;;
27822;SDS011;29019;47.630;8.262;2024-03-02T08:22:09;1.17;;;0.73;;
27822;SDS011;29019;47.630;8.262;2024-03-02T08:26:10;0.60;;;0.60;;
27822;SDS011;29019;47.630;8.262;2024-03-02T08:30:11;0.60;;;0.60;;
27822;SDS011;29019;47.630;8.262;2024-03-02T08:34:12;0.90;;;0.52;;
27822;SDS011;29019;47.630;8.262;2024-03-02T08:38:13;0.57;;;0.57;;
27822;SDS011;29019;47.630;8.262;2024-03-02T08:42:14;0.80;;;0.70;;
27822;SDS011;29019;47.630;8.262;2024-03-02T08:46:15;0.93;;;0.63;;
27822;SDS011;29019;47.630;8.262;2024-03-02T08:50:15;1.13;;;1.00;;
27822;SDS011;29019;47.630;8.262;2024-03-02T08:54:16;0.73;;;0.60;;
27822;SDS011;29019;47.630;8.262;2024-03-02T08:58:17;0.37;;;0.37;;
27822;SDS011;29019;47.630;8.262;2024-03-02T09:02:17;0.60;;;0.60;;
27822;SDS011;29019;47.630;8.262;2024-03-02T09:06:18;0.50;;;0.50;;
27822;SDS011;29019;47.630;8.262;2024-03-02T09:10:21;0.73;;;0.60;;
27822;SDS011;29019;47.630;8.262;2024-03-02T09:14:22;0.85;;;0.50;;
27822;SDS011;29019;47.630;8.262;2024-03-02T09:22:24;0.57;;;0.50;;
27822;SDS011;29019;47.630;8.262;2024-03-02T09:26:24;0.80;;;0.50;;
27822;SDS011;29019;47.630;8.262;2024-03-02T09:30:25;0.68;;;0.60;;
27822;SDS011;29019;47.630;8.262;2024-03-02T09:34:26;0.57;;;0.57;;
27822;SDS011;29019;47.630;8.262;2024-03-02T09:38:27;0.57;;;0.52;;
27822;SDS011;29019;47.630;8.262;2024-03-02T09:42:27;0.70;;;0.70;;
27822;SDS011;29019;47.630;8.262;2024-03-02T09:46:29;0.47;;;0.47;;
27822;SDS011;29019;47.630;8.262;2024-03-02T09:50:30;0.60;;;0.55;;
27822;SDS011;29019;47.630;8.262;2024-03-02T09:54:31;0.80;;;0.80;;
27822;SDS011;29019;47.630;8.262;2024-03-02T09:58:31;1.00;;;0.70;;
27822;SDS011;29019;47.630;8.262;2024-03-02T10:02:32;0.60;;;0.60;;
27822;SDS011;29019;47.630;8.262;2024-03-02T10:06:33;0.73;;;0.60;;
27822;SDS011;29019;47.630;8.262;2024-03-02T10:10:34;0.40;;;0.40;;
27822;SDS011;29019;47.630;8.262;2024-03-02T10:14:39;0.52;;;0.50;;
27822;SDS011;29019;47.630;8.262;2024-03-02T10:18:41;1.67;;;1.20;;
27822;SDS011;29019;47.630;8.262;2024-03-02T10:22:41;0.73;;;0.73;;
27822;SDS011;29019;47.630;8.262;2024-03-02T10:26:42;1.13;;;0.80;;
27822;SDS011;29019;47.630;8.262;2024-03-02T10:30:43;1.05;;;0.82;;
27822;SDS011;29019;47.630;8.262;2024-03-02T10:34:49;1.98;;;1.40;;
27822;SDS011;29019;47.630;8.262;2024-03-02T10:42:55;3.97;;;3.05;;
27822;SDS011;29019;47.630;8.262;2024-03-02T10:46:57;4.43;;;2.65;;
27822;SDS011;29019;47.630;8.262;2024-03-02T10:51:04;4.53;;;2.10;;
27822;SDS011;29019;47.630;8.262;2024-03-02T10:55:11;4.05;;;2.60;;
27822;SDS011;29019;47.630;8.262;2024-03-02T11:03:22;4.68;;;1.80;;
27822;SDS011;29019;47.630;8.262;2024-03-02T11:11:27;1.98;;;1.30;;
27822;SDS011;29019;47.630;8.262;2024-03-02T11:15:32;4.80;;;1.30;;
27822;SDS011;29019;47.630;8.262;2024-03-02T11:19:39;1.70;;;1.20;;
27822;SDS011;29019;47.630;8.262;2024-03-02T11:23:40;3.65;;;1.50;;
27822;SDS011;29019;47.630;8.262;2024-03-02T11:31:57;3.75;;;2.67;;
27822;SDS011;29019;47.630;8.262;2024-03-02T11:36:01;5.68;;;3.05;;
27822;SDS011;29019;47.630;8.262;2024-03-02T11:40:02;6.38;;;3.17;;
27822;SDS011;29019;47.630;8.262;2024-03-02T11:44:03;9.68;;;3.17;;
27822;SDS011;29019;47.630;8.262;2024-03-02T11:48:04;5.75;;;2.88;;
27822;SDS011;29019;47.630;8.262;2024-03-02T11:52:09;7.57;;;3.60;;
27822;SDS011;29019;47.630;8.262;2024-03-02T11:56:11;11.35;;;3.78;;
27822;SDS011;29019;47.630;8.262;2024-03-02T12:00:17;4.88;;;3.00;;
27822;SDS011;29019;47.630;8.262;2024-03-02T12:04:19;7.82;;;3.03;;
27822;SDS011;29019;47.630;8.262;2024-03-02T12:08:19;5.60;;;2.92;;
27822;SDS011;29019;47.630;8.262;2024-03-02T12:12:21;11.57;;;3.08;;
27822;SDS011;29019;47.630;8.262;2024-03-02T12:16:23;4.28;;;2.80;;
27822;SDS011;29019;47.630;8.262;2024-03-02T12:20:30;4.70;;;3.15;;
27822;SDS011;29019;47.630;8.262;2024-03-02T12:24:32;8.90;;;3.63;;
27822;SDS011;29019;47.630;8.262;2024-03-02T12:28:33;5.40;;;3.10;;
27822;SDS011;29019;47.630;8.262;2024-03-02T12:32:34;5.18;;;2.95;;
27822;SDS011;29019;47.630;8.262;2024-03-02T12:36:38;5.07;;;2.60;;
27822;SDS011;29019;47.630;8.262;2024-03-02T12:40:39;4.72;;;2.92;;
27822;SDS011;29019;47.630;8.262;2024-03-02T12:44:40;6.20;;;3.15;;
27822;SDS011;29019;47.630;8.262;2024-03-02T12:48:40;10.88;;;3.05;;
27822;SDS011;29019;47.630;8.262;2024-03-02T12:56:42;4.77;;;3.03;;
27822;SDS011;29019;47.630;8.262;2024-03-02T13:00:47;3.85;;;2.28;;
27822;SDS011;29019;47.630;8.262;2024-03-02T13:04:54;9.60;;;2.88;;
27822;SDS011;29019;47.630;8.262;2024-03-02T13:08:55;6.90;;;2.67;;
27822;SDS011;29019;47.630;8.262;2024-03-02T13:12:56;14.35;;;3.30;;
27822;SDS011;29019;47.630;8.262;2024-03-02T13:16:57;8.85;;;2.95;;
27822;SDS011;29019;47.630;8.262;2024-03-02T13:20:58;9.27;;;2.50;;
27822;SDS011;29019;47.630;8.262;2024-03-02T13:24:58;5.07;;;2.22;;
27822;SDS011;29019;47.630;8.262;2024-03-02T13:29:01;7.43;;;2.75;;
27822;SDS011;29019;47.630;8.262;2024-03-02T13:33:02;9.20;;;3.57;;
27822;SDS011;29019;47.630;8.262;2024-03-02T13:37:03;11.57;;;2.92;;
27822;SDS011;29019;47.630;8.262;2024-03-02T13:41:05;13.73;;;3.45;;
27822;SDS011;29019;47.630;8.262;2024-03-02T13:45:06;5.18;;;2.50;;
27822;SDS011;29019;47.630;8.262;2024-03-02T13:49:07;3.90;;;2.63;;
27822;SDS011;29019;47.630;8.262;2024-03-02T13:53:07;11.45;;;2.63;;
27822;SDS011;29019;47.630;8.262;2024-03-02T13:57:09;5.97;;;2.80;;
27822;SDS011;29019;47.630;8.262;2024-03-02T14:01:11;6.68;;;2.30;;
27822;SDS011;29019;47.630;8.262;2024-03-02T14:05:12;5.05;;;2.55;;
27822;SDS011;29019;47.630;8.262;2024-03-02T14:09:13;4.80;;;2.60;;
27822;SDS011;29019;47.630;8.262;2024-03-02T14:13:15;9.00;;;2.70;;
27822;SDS011;29019;47.630;8.262;2024-03-02T14:17:15;5.82;;;3.20;;
27822;SDS011;29019;47.630;8.262;2024-03-02T14:21:16;5.00;;;2.67;;
27822;SDS011;29019;47.630;8.262;2024-03-02T14:25:17;7.20;;;2.28;;
27822;SDS011;29019;47.630;8.262;2024-03-02T14:29:19;6.65;;;2.05;;
27822;SDS011;29019;47.630;8.262;2024-03-02T14:33:19;10.63;;;2.38;;
27822;SDS011;29019;47.630;8.262;2024-03-02T14:37:20;6.20;;;1.88;;
27822;SDS011;29019;47.630;8.262;2024-03-02T14:41:21;5.70;;;1.70;;
27822;SDS011;29019;47.630;8.262;2024-03-02T14:45:24;3.22;;;1.83;;
27822;SDS011;29019;47.630;8.262;2024-03-02T14:49:25;2.42;;;1.25;;
27822;SDS011;29019;47.630;8.262;2024-03-02T14:57:26;11.83;;;1.60;;
27822;SDS011;29019;47.630;8.262;2024-03-02T15:01:27;6.00;;;1.30;;
27822;SDS011;29019;47.630;8.262;2024-03-02T15:05:28;5.78;;;1.73;;
27822;SDS011;29019;47.630;8.262;2024-03-02T15:09:29;4.20;;;1.20;;
27822;SDS011;29019;47.630;8.262;2024-03-02T15:13:29;5.60;;;2.28;;
27822;SDS011;29019;47.630;8.262;2024-03-02T15:17:30;16.17;;;4.85;;
27822;SDS011;29019;47.630;8.262;2024-03-02T15:21:31;14.88;;;6.88;;
27822;SDS011;29019;47.630;8.262;2024-03-02T15:25:31;17.45;;;9.27;;
27822;SDS011;29019;47.630;8.262;2024-03-02T15:29:32;13.70;;;8.95;;
27822;SDS011;29019;47.630;8.262;2024-03-02T15:33:33;20.75;;;11.80;;
27822;SDS011;29019;47.630;8.262;2024-03-02T15:37:33;22.67;;;10.68;;
27822;SDS011;29019;47.630;8.262;2024-03-02T15:41:34;19.70;;;9.18;;
27822;SDS011;29019;47.630;8.262;2024-03-02T15:45:35;11.32;;;5.97;;
27822;SDS011;29019;47.630;8.262;2024-03-02T15:49:36;11.02;;;5.90;;
27822;SDS011;29019;47.630;8.262;2024-03-02T15:53:36;7.10;;;4.05;;
27822;SDS011;29019;47.630;8.262;2024-03-02T15:57:37;8.17;;;3.57;;
27822;SDS011;29019;47.630;8.262;2024-03-02T16:01:38;5.97;;;3.70;;
27822;SDS011;29019;47.630;8.262;2024-03-02T16:05:39;7.22;;;2.85;;
27822;SDS011;29019;47.630;8.262;2024-03-02T16:09:39;13.90;;;3.30;;
27822;SDS011;29019;47.630;8.262;2024-03-02T16:13:40;8.37;;;3.37;;
27822;SDS011;29019;47.630;8.262;2024-03-02T16:17:41;10.93;;;3.43;;
27822;SDS011;29019;47.630;8.262;2024-03-02T16:21:41;8.57;;;3.60;;
27822;SDS011;29019;47.630;8.262;2024-03-02T16:29:43;10.80;;;4.50;;
27822;SDS011;29019;47.630;8.262;2024-03-02T16:33:44;10.68;;;4.40;;
27822;SDS011;29019;47.630;8.262;2024-03-02T16:37:45;13.40;;;5.07;;
27822;SDS011;29019;47.630;8.262;2024-03-02T16:41:47;16.63;;;4.20;;
27822;SDS011;29019;47.630;8.262;2024-03-02T16:45:48;9.90;;;3.60;;
27822;SDS011;29019;47.630;8.262;2024-03-02T16:49:48;13.47;;;4.27;;
27822;SDS011;29019;47.630;8.262;2024-03-02T16:53:49;16.20;;;4.72;;
27822;SDS011;29019;47.630;8.262;2024-03-02T16:57:50;9.55;;;4.13;;
27822;SDS011;29019;47.630;8.262;2024-03-02T17:01:51;16.00;;;5.25;;
27822;SDS011;29019;47.630;8.262;2024-03-02T17:05:51;9.88;;;4.45;;
27822;SDS011;29019;47.630;8.262;2024-03-02T17:09:52;30.58;;;5.50;;
27822;SDS011;29019;47.630;8.262;2024-03-02T17:13:55;12.25;;;3.90;;
27822;SDS011;29019;47.630;8.262;2024-03-02T17:17:57;14.48;;;4.25;;
27822;SDS011;29019;47.630;8.262;2024-03-02T17:21:58;15.77;;;3.45;;
27822;SDS011;29019;47.630;8.262;2024-03-02T17:25:58;11.05;;;3.45;;
27822;SDS011;29019;47.630;8.262;2024-03-02T17:29:59;11.60;;;4.30;;
27822;SDS011;29019;47.630;8.262;2024-03-02T17:34:00;13.20;;;4.35;;
27822;SDS011;29019;47.630;8.262;2024-03-02T17:38:01;9.60;;;4.53;;
27822;SDS011;29019;47.630;8.262;2024-03-02T17:42:01;9.82;;;4.60;;
27822;SDS011;29019;47.630;8.262;2024-03-02T17:46:02;10.25;;;3.90;;
27822;SDS011;29019;47.630;8.262;2024-03-02T17:50:03;13.25;;;3.38;;
27822;SDS011;29019;47.630;8.262;2024-03-02T17:54:04;10.27;;;3.63;;
27822;SDS011;29019;47.630;8.262;2024-03-02T18:02:06;11.47;;;3.33;;
27822;SDS011;29019;47.630;8.262;2024-03-02T18:06:07;9.95;;;3.80;;
27822;SDS011;29019;47.630;8.262;2024-03-02T18:10:13;9.25;;;3.58;;
27822;SDS011;29019;47.630;8.262;2024-03-02T18:14:13;6.25;;;3.10;;
27822;SDS011;29019;47.630;8.262;2024-03-02T18:18:14;8.35;;;3.28;;
27822;SDS011;29019;47.630;8.262;2024-03-02T18:22:17;7.20;;;3.75;;
27822;SDS011;29019;47.630;8.262;2024-03-02T18:26:18;6.45;;;3.03;;
27822;SDS011;29019;47.630;8.262;2024-03-02T18:30:18;12.95;;;4.32;;
27822;SDS011;29019;47.630;8.262;2024-03-02T18:34:19;9.60;;;2.70;;
27822;SDS011;29019;47.630;8.262;2024-03-02T18:38:20;7.20;;;3.08;;
27822;SDS011;29019;47.630;8.262;2024-03-02T18:42:21;15.75;;;4.03;;
27822;SDS011;29019;47.630;8.262;2024-03-02T18:46:21;10.73;;;3.17;;
27822;SDS011;29019;47.630;8.262;2024-03-02T18:50:22;9.88;;;3.03;;
27822;SDS011;29019;47.630;8.262;2024-03-02T18:54:22;13.20;;;3.97;;
27822;SDS011;29019;47.630;8.262;2024-03-02T18:58:23;8.20;;;3.22;;
27822;SDS011;29019;47.630;8.262;2024-03-02T19:02:25;9.02;;;3.63;;
27822;SDS011;29019;47.630;8.262;2024-03-02T19:06:26;5.97;;;2.75;;
27822;SDS011;29019;47.630;8.262;2024-03-02T19:10:26;6.95;;;3.17;;
27822;SDS011;29019;47.630;8.262;2024-03-02T19:14:28;9.88;;;3.30;;
27822;SDS011;29019;47.630;8.262;2024-03-02T19:18:29;11.27;;;3.47;;
27822;SDS011;29019;47.630;8.262;2024-03-02T19:22:30;4.32;;;2.70;;
27822;SDS011;29019;47.630;8.262;2024-03-02T19:26:33;9.55;;;3.00;;
27822;SDS011;29019;47.630;8.262;2024-03-02T19:30:33;8.05;;;3.30;;
27822;SDS011;29019;47.630;8.262;2024-03-02T19:34:35;11.80;;;2.67;;
27822;SDS011;29019;47.630;8.262;2024-03-02T19:38:36;10.00;;;3.20;;
27822;SDS011;29019;47.630;8.262;2024-03-02T19:42:36;9.85;;;3.50;;
27822;SDS011;29019;47.630;8.262;2024-03-02T19:46:37;4.80;;;2.50;;
27822;SDS011;29019;47.630;8.262;2024-03-02T19:50:38;6.45;;;2.80;;
27822;SDS011;29019;47.630;8.262;2024-03-02T19:54:40;9.13;;;2.58;;
27822;SDS011;29019;47.630;8.262;2024-03-02T19:58:41;8.48;;;2.88;;
27822;SDS011;29019;47.630;8.262;2024-03-02T20:02:43;7.15;;;2.80;;
27822;SDS011;29019;47.630;8.262;2024-03-02T20:06:43;10.13;;;2.85;;
27822;SDS011;29019;47.630;8.262;2024-03-02T20:10:44;6.70;;;2.70;;
27822;SDS011;29019;47.630;8.262;2024-03-02T20:14:45;9.00;;;3.20;;
27822;SDS011;29019;47.630;8.262;2024-03-02T20:18:45;10.43;;;2.58;;
27822;SDS011;29019;47.630;8.262;2024-03-02T20:22:46;8.85;;;2.47;;
27822;SDS011;29019;47.630;8.262;2024-03-02T20:26:47;6.95;;;2.25;;
27822;SDS011;29019;47.630;8.262;2024-03-02T20:30:47;21.23;;;4.10;;
27822;SDS011;29019;47.630;8.262;2024-03-02T20:34:48;10.60;;;2.60;;
27822;SDS011;29019;47.630;8.262;2024-03-02T20:38:49;11.65;;;2.75;;
27822;SDS011;29019;47.630;8.262;2024-03-02T20:42:50;10.88;;;3.42;;
27822;SDS011;29019;47.630;8.262;2024-03-02T20:46:50;15.07;;;5.55;;
27822;SDS011;29019;47.630;8.262;2024-03-02T20:50:52;34.80;;;11.90;;
27822;SDS011;29019;47.630;8.262;2024-03-02T20:54:53;33.78;;;18.48;;
27822;SDS011;29019;47.630;8.262;2024-03-02T20:58:54;43.22;;;19.77;;
27822;SDS011;29019;47.630;8.262;2024-03-02T21:02:54;44.13;;;25.40;;
27822;SDS011;29019;47.630;8.262;2024-03-02T21:06:55;47.90;;;28.80;;
27822;SDS011;29019;47.630;8.262;2024-03-02T21:10:56;55.92;;;33.35;;
27822;SDS011;29019;47.630;8.262;2024-03-02T21:14:56;41.83;;;26.38;;
27822;SDS011;29019;47.630;8.262;2024-03-02T21:18:57;23.70;;;13.07;;
27822;SDS011;29019;47.630;8.262;2024-03-02T21:22:58;19.77;;;11.32;;
27822;SDS011;29019;47.630;8.262;2024-03-02T21:26:58;20.20;;;9.65;;
27822;SDS011;29019;47.630;8.262;2024-03-02T21:30:59;17.30;;;8.85;;
27822;SDS011;29019;47.630;8.262;2024-03-02T21:35:00;14.20;;;8.52;;
27822;SDS011;29019;47.630;8.262;2024-03-02T21:39:01;14.88;;;7.05;;
27822;SDS011;29019;47.630;8.262;2024-03-02T21:43:02;11.85;;;7.75;;
27822;SDS011;29019;47.630;8.262;2024-03-02T21:47:03;13.52;;;6.63;;
27822;SDS011;29019;47.630;8.262;2024-03-02T21:51:04;15.48;;;7.45;;
27822;SDS011;29019;47.630;8.262;2024-03-02T21:55:06;12.63;;;7.00;;
27822;SDS011;29019;47.630;8.262;2024-03-02T21:59:08;10.77;;;6.35;;
27822;SDS011;29019;47.630;8.262;2024-03-02T22:03:09;10.52;;;6.38;;
27822;SDS011;29019;47.630;8.262;2024-03-02T22:07:09;8.80;;;5.60;;
27822;SDS011;29019;47.630;8.262;2024-03-02T22:11:10;11.38;;;5.80;;
27822;SDS011;29019;47.630;8.262;2024-03-02T22:15:12;11.57;;;6.45;;
27822;SDS011;29019;47.630;8.262;2024-03-02T22:19:12;9.70;;;6.07;;
27822;SDS011;29019;47.630;8.262;2024-03-02T22:23:13;9.18;;;5.22;;
27822;SDS011;29019;47.630;8.262;2024-03-02T22:27:14;8.88;;;5.40;;
27822;SDS011;29019;47.630;8.262;2024-03-02T22:31:15;9.52;;;5.82;;
27822;SDS011;29019;47.630;8.262;2024-03-02T22:35:16;8.48;;;5.53;;
27822;SDS011;29019;47.630;8.262;2024-03-02T22:39:16;14.18;;;6.30;;
27822;SDS011;29019;47.630;8.262;2024-03-02T22:43:17;10.15;;;5.50;;
27822;SDS011;29019;47.630;8.262;2024-03-02T22:47:18;8.85;;;5.40;;
27822;SDS011;29019;47.630;8.262;2024-03-02T22:51:22;11.40;;;5.95;;
27822;SDS011;29019;47.630;8.262;2024-03-02T22:55:24;22.60;;;5.65;;
27822;SDS011;29019;47.630;8.262;2024-03-02T22:59:24;9.15;;;4.72;;
27822;SDS011;29019;47.630;8.262;2024-03-02T23:03:25;31.80;;;7.53;;
27822;SDS011;29019;47.630;8.262;2024-03-02T23:07:26;17.25;;;5.55;;
27822;SDS011;29019;47.630;8.262;2024-03-02T23:11:27;8.43;;;5.10;;
27822;SDS011;29019;47.630;8.262;2024-03-02T23:15:27;12.40;;;4.90;;
27822;SDS011;29019;47.630;8.262;2024-03-02T23:19:31;12.10;;;5.18;;
27822;SDS011;29019;47.630;8.262;2024-03-02T23:23:31;7.25;;;5.07;;
27822;SDS011;29019;47.630;8.262;2024-03-02T23:27:32;7.78;;;5.03;;
27822;SDS011;29019;47.630;8.262;2024-03-02T23:31:33;7.25;;;4.68;;
27822;SDS011;29019;47.630;8.262;2024-03-02T23:35:33;10.05;;;5.93;;
27822;SDS011;29019;47.630;8.262;2024-03-02T23:39:34;7.40;;;4.90;;
27822;SDS011;29019;47.630;8.262;2024-03-02T23:43:54;7.68;;;4.35;;
27822;SDS011;29019;47.630;8.262;2024-03-02T23:48:01;8.15;;;5.10;;
27822;SDS011;29019;47.630;8.262;2024-03-02T23:52:02;7.28;;;4.75;;
